General R Fierro Villalobos International Airport
MMCU : now visible

Airfield :











YOU CAN JOIN US ON...

 
LOGIN :

Register | Disclaimer

   EN    FR    IT 

 









Legend :    VFR   Marginal VFR   IFR   Intensive IFR   Very Intensive IFR
Visi :
Ceiling :
>= 8 km
>= 3000ft
5 to 8 km
1000 to 3000 ft
1500m to 5 km
500 to 1000 ft
800 to 1500m
200 to 500 ft
< 800m
< 200 ft
Symbols :   Thunderstorms  Fog  Heavy snow  Heavy precipitations  Wind > 20 kt







- Airport Elevation : 4462 ft
- IATA code : CUU


MMCU - General R Fierro Villalobos International

METAR N/A
TAF TAF MMCU
Valid from the 17 at 06:00 until the 18 at 06:00 UTC


170435Z 1706/1806 25005KT P6SM SCT030 SCT080 BKN250
TEMPO 1707/1711 5SM -RA BKN030CB
FM171800 16010KT P6SM BKN030 BKN080 OVC250
FM180500 15005KT P6SM SCT030 SCT090 BKN250
No reported NOTAMs for that airfield.



MET'MAP, your aeronautical weather chart ! - Copyright ORBIFLY December 2007 - Disclaimer

ORBIFLY MET'MAP TEAM :

Programming & Development : Alexandra Zaïnal
Concept & Development : Baudouin d'Aumeries
Co-Development & Prog : Marc-Olivier Méhu
Technical & hardware support : Manuel Goepfert

Contact : metmap@orbifly.com




SOURCES & CREDITS :

   NOAA       Earth
Advisory